sensor_id;sensor_type;location;lat;lon;timestamp;temperature;humidity
31765;DHT22;18338;53.240;8.798;2022-08-19T00:01:27;17.40;99.90
31765;DHT22;18338;53.240;8.798;2022-08-19T00:04:07;17.30;99.90
31765;DHT22;18338;53.240;8.798;2022-08-19T00:06:36;17.30;99.90
31765;DHT22;18338;53.240;8.798;2022-08-19T00:09:06;17.30;99.90
31765;DHT22;18338;53.240;8.798;2022-08-19T00:11:33;17.20;99.90
31765;DHT22;18338;53.240;8.798;2022-08-19T00:14:01;17.20;99.90
31765;DHT22;18338;53.240;8.798;2022-08-19T00:16:28;17.20;99.90
31765;DHT22;18338;53.240;8.798;2022-08-19T00:18:55;17.20;99.90
31765;DHT22;18338;53.240;8.798;2022-08-19T00:21:26;17.20;99.90
31765;DHT22;18338;53.240;8.798;2022-08-19T00:23:57;17.30;99.90
31765;DHT22;18338;53.240;8.798;2022-08-19T00:26:26;17.30;99.90
31765;DHT22;18338;53.240;8.798;2022-08-19T00:28:54;17.30;99.90
31765;DHT22;18338;53.240;8.798;2022-08-19T00:31:21;17.30;99.90
31765;DHT22;18338;53.240;8.798;2022-08-19T00:33:48;17.30;99.90
31765;DHT22;18338;53.240;8.798;2022-08-19T00:36:17;17.30;99.90
31765;DHT22;18338;53.240;8.798;2022-08-19T00:38:44;17.30;99.90
31765;DHT22;18338;53.240;8.798;2022-08-19T00:41:15;17.30;99.90
31765;DHT22;18338;53.240;8.798;2022-08-19T00:46:29;17.40;99.90
31765;DHT22;18338;53.240;8.798;2022-08-19T00:48:56;17.40;99.90
31765;DHT22;18338;53.240;8.798;2022-08-19T00:51:25;17.40;99.90
31765;DHT22;18338;53.240;8.798;2022-08-19T00:53:55;17.40;99.90
31765;DHT22;18338;53.240;8.798;2022-08-19T00:56:23;17.40;99.90
31765;DHT22;18338;53.240;8.798;2022-08-19T00:58:50;17.40;99.90
31765;DHT22;18338;53.240;8.798;2022-08-19T01:01:17;17.40;99.90
31765;DHT22;18338;53.240;8.798;2022-08-19T01:03:44;17.40;99.90
31765;DHT22;18338;53.240;8.798;2022-08-19T01:06:25;17.40;99.90
31765;DHT22;18338;53.240;8.798;2022-08-19T01:08:54;17.40;99.90
31765;DHT22;18338;53.240;8.798;2022-08-19T01:11:21;17.40;99.90
31765;DHT22;18338;53.240;8.798;2022-08-19T01:13:48;17.40;99.90
31765;DHT22;18338;53.240;8.798;2022-08-19T01:16:19;17.40;99.90
31765;DHT22;18338;53.240;8.798;2022-08-19T01:18:47;17.40;99.90
31765;DHT22;18338;53.240;8.798;2022-08-19T01:21:31;17.40;99.90
31765;DHT22;18338;53.240;8.798;2022-08-19T01:23:59;17.40;99.90
31765;DHT22;18338;53.240;8.798;2022-08-19T01:26:27;17.40;99.90
31765;DHT22;18338;53.240;8.798;2022-08-19T01:28:58;17.40;99.90
31765;DHT22;18338;53.240;8.798;2022-08-19T01:31:28;17.40;99.90
31765;DHT22;18338;53.240;8.798;2022-08-19T01:34:00;17.40;99.90
31765;DHT22;18338;53.240;8.798;2022-08-19T01:36:34;17.40;99.90
31765;DHT22;18338;53.240;8.798;2022-08-19T01:39:04;17.40;99.90
31765;DHT22;18338;53.240;8.798;2022-08-19T01:41:31;17.40;99.90
31765;DHT22;18338;53.240;8.798;2022-08-19T01:44:00;17.40;99.90
31765;DHT22;18338;53.240;8.798;2022-08-19T01:46:45;17.50;99.90
31765;DHT22;18338;53.240;8.798;2022-08-19T01:49:12;17.40;99.90
31765;DHT22;18338;53.240;8.798;2022-08-19T01:51:38;17.40;99.90
31765;DHT22;18338;53.240;8.798;2022-08-19T01:54:10;17.40;99.90
31765;DHT22;18338;53.240;8.798;2022-08-19T01:56:38;17.40;99.90
31765;DHT22;18338;53.240;8.798;2022-08-19T01:59:10;17.40;99.90
31765;DHT22;18338;53.240;8.798;2022-08-19T02:01:38;17.40;99.90
31765;DHT22;18338;53.240;8.798;2022-08-19T02:04:06;17.40;99.90
31765;DHT22;18338;53.240;8.798;2022-08-19T02:06:33;17.30;99.90
31765;DHT22;18338;53.240;8.798;2022-08-19T02:09:01;17.30;99.90
31765;DHT22;18338;53.240;8.798;2022-08-19T02:11:31;17.30;99.90
31765;DHT22;18338;53.240;8.798;2022-08-19T02:14:00;17.40;99.90
31765;DHT22;18338;53.240;8.798;2022-08-19T02:16:28;17.40;99.90
31765;DHT22;18338;53.240;8.798;2022-08-19T02:22:45;17.40;99.90
31765;DHT22;18338;53.240;8.798;2022-08-19T02:25:48;17.40;99.90
31765;DHT22;18338;53.240;8.798;2022-08-19T02:28:15;17.40;99.90
31765;DHT22;18338;53.240;8.798;2022-08-19T02:30:45;17.40;99.90
31765;DHT22;18338;53.240;8.798;2022-08-19T02:33:13;17.40;99.90
31765;DHT22;18338;53.240;8.798;2022-08-19T02:35:46;17.40;99.90
31765;DHT22;18338;53.240;8.798;2022-08-19T02:38:13;17.40;99.90
31765;DHT22;18338;53.240;8.798;2022-08-19T02:41:05;17.50;99.90
31765;DHT22;18338;53.240;8.798;2022-08-19T02:43:33;17.40;99.90
31765;DHT22;18338;53.240;8.798;2022-08-19T02:46:19;17.40;99.90
31765;DHT22;18338;53.240;8.798;2022-08-19T02:57:07;17.40;99.90
31765;DHT22;18338;53.240;8.798;2022-08-19T02:59:37;17.40;99.90
31765;DHT22;18338;53.240;8.798;2022-08-19T03:02:09;17.40;99.90
31765;DHT22;18338;53.240;8.798;2022-08-19T03:04:37;17.40;99.90
31765;DHT22;18338;53.240;8.798;2022-08-19T03:07:05;17.40;99.90
31765;DHT22;18338;53.240;8.798;2022-08-19T03:09:37;17.40;99.90
31765;DHT22;18338;53.240;8.798;2022-08-19T03:12:05;17.40;99.90
31765;DHT22;18338;53.240;8.798;2022-08-19T03:14:32;17.40;99.90
31765;DHT22;18338;53.240;8.798;2022-08-19T03:17:00;17.40;99.90
31765;DHT22;18338;53.240;8.798;2022-08-19T03:19:27;17.40;99.90
31765;DHT22;18338;53.240;8.798;2022-08-19T03:21:55;17.40;99.90
31765;DHT22;18338;53.240;8.798;2022-08-19T03:24:22;17.30;99.90
31765;DHT22;18338;53.240;8.798;2022-08-19T03:26:51;17.40;99.90
31765;DHT22;18338;53.240;8.798;2022-08-19T03:29:19;17.40;99.90
31765;DHT22;18338;53.240;8.798;2022-08-19T03:31:56;17.40;99.90
31765;DHT22;18338;53.240;8.798;2022-08-19T03:34:29;17.40;99.90
31765;DHT22;18338;53.240;8.798;2022-08-19T03:36:58;17.40;99.90
31765;DHT22;18338;53.240;8.798;2022-08-19T03:39:25;17.40;99.90
31765;DHT22;18338;53.240;8.798;2022-08-19T03:41:54;17.40;99.90
31765;DHT22;18338;53.240;8.798;2022-08-19T03:44:44;17.40;99.90
31765;DHT22;18338;53.240;8.798;2022-08-19T03:47:12;17.40;99.90
31765;DHT22;18338;53.240;8.798;2022-08-19T03:49:43;17.40;99.90
31765;DHT22;18338;53.240;8.798;2022-08-19T03:52:11;17.40;99.90
31765;DHT22;18338;53.240;8.798;2022-08-19T03:54:38;17.40;99.90
31765;DHT22;18338;53.240;8.798;2022-08-19T03:57:07;17.40;99.90
31765;DHT22;18338;53.240;8.798;2022-08-19T03:59:37;17.40;99.90
31765;DHT22;18338;53.240;8.798;2022-08-19T04:02:10;17.40;99.90
31765;DHT22;18338;53.240;8.798;2022-08-19T04:04:39;17.40;99.90
31765;DHT22;18338;53.240;8.798;2022-08-19T04:07:06;17.40;99.90
31765;DHT22;18338;53.240;8.798;2022-08-19T04:09:35;17.40;99.90
31765;DHT22;18338;53.240;8.798;2022-08-19T04:12:03;17.40;99.90
31765;DHT22;18338;53.240;8.798;2022-08-19T04:14:32;17.40;99.90
31765;DHT22;18338;53.240;8.798;2022-08-19T04:17:01;17.30;99.90
31765;DHT22;18338;53.240;8.798;2022-08-19T04:19:33;17.20;99.90
31765;DHT22;18338;53.240;8.798;2022-08-19T04:22:02;17.00;99.90
31765;DHT22;18338;53.240;8.798;2022-08-19T04:24:31;16.90;99.90
31765;DHT22;18338;53.240;8.798;2022-08-19T04:27:00;16.80;99.90
31765;DHT22;18338;53.240;8.798;2022-08-19T04:29:29;16.70;99.90
31765;DHT22;18338;53.240;8.798;2022-08-19T04:31:57;16.60;99.90
31765;DHT22;18338;53.240;8.798;2022-08-19T04:34:35;16.50;99.90
31765;DHT22;18338;53.240;8.798;2022-08-19T04:37:21;16.50;99.90
31765;DHT22;18338;53.240;8.798;2022-08-19T04:39:49;16.30;99.90
31765;DHT22;18338;53.240;8.798;2022-08-19T04:42:35;16.40;99.90
31765;DHT22;18338;53.240;8.798;2022-08-19T04:45:10;16.40;99.90
31765;DHT22;18338;53.240;8.798;2022-08-19T04:47:41;16.40;99.90
31765;DHT22;18338;53.240;8.798;2022-08-19T04:50:23;16.40;99.90
31765;DHT22;18338;53.240;8.798;2022-08-19T04:52:53;16.50;99.90
31765;DHT22;18338;53.240;8.798;2022-08-19T04:55:22;16.40;99.90
31765;DHT22;18338;53.240;8.798;2022-08-19T04:57:49;16.40;99.90
31765;DHT22;18338;53.240;8.798;2022-08-19T05:00:17;16.50;99.90
31765;DHT22;18338;53.240;8.798;2022-08-19T05:02:44;16.40;99.90
31765;DHT22;18338;53.240;8.798;2022-08-19T05:05:10;16.40;99.90
31765;DHT22;18338;53.240;8.798;2022-08-19T05:07:39;16.40;99.90
31765;DHT22;18338;53.240;8.798;2022-08-19T05:10:08;16.40;99.90
31765;DHT22;18338;53.240;8.798;2022-08-19T05:12:36;16.40;99.90
31765;DHT22;18338;53.240;8.798;2022-08-19T05:15:04;16.40;99.90
31765;DHT22;18338;53.240;8.798;2022-08-19T05:17:32;16.50;99.90
31765;DHT22;18338;53.240;8.798;2022-08-19T05:20:06;16.50;99.90
31765;DHT22;18338;53.240;8.798;2022-08-19T05:22:52;16.50;99.90
31765;DHT22;18338;53.240;8.798;2022-08-19T05:25:21;16.50;99.90
31765;DHT22;18338;53.240;8.798;2022-08-19T05:27:48;16.50;99.90
31765;DHT22;18338;53.240;8.798;2022-08-19T05:30:16;16.50;99.90
31765;DHT22;18338;53.240;8.798;2022-08-19T05:32:45;16.50;99.90
31765;DHT22;18338;53.240;8.798;2022-08-19T05:35:12;16.50;99.90
31765;DHT22;18338;53.240;8.798;2022-08-19T05:37:39;16.60;99.90
31765;DHT22;18338;53.240;8.798;2022-08-19T05:40:08;16.70;99.90
31765;DHT22;18338;53.240;8.798;2022-08-19T05:42:37;16.70;99.90
31765;DHT22;18338;53.240;8.798;2022-08-19T05:45:05;16.70;99.90
31765;DHT22;18338;53.240;8.798;2022-08-19T05:47:32;16.80;99.90
31765;DHT22;18338;53.240;8.798;2022-08-19T05:50:00;16.80;99.90
31765;DHT22;18338;53.240;8.798;2022-08-19T05:52:31;16.80;99.90
31765;DHT22;18338;53.240;8.798;2022-08-19T05:54:59;16.90;99.90
31765;DHT22;18338;53.240;8.798;2022-08-19T05:57:25;17.00;99.90
31765;DHT22;18338;53.240;8.798;2022-08-19T05:59:54;17.10;99.90
31765;DHT22;18338;53.240;8.798;2022-08-19T06:02:25;17.10;99.90
31765;DHT22;18338;53.240;8.798;2022-08-19T06:04:53;17.10;99.90
31765;DHT22;18338;53.240;8.798;2022-08-19T06:07:21;17.10;99.90
31765;DHT22;18338;53.240;8.798;2022-08-19T06:09:48;17.00;99.90
31765;DHT22;18338;53.240;8.798;2022-08-19T06:12:27;17.00;99.90
31765;DHT22;18338;53.240;8.798;2022-08-19T06:14:55;17.00;99.90
31765;DHT22;18338;53.240;8.798;2022-08-19T06:17:29;17.10;99.90
31765;DHT22;18338;53.240;8.798;2022-08-19T06:19:58;17.10;99.90
31765;DHT22;18338;53.240;8.798;2022-08-19T06:22:26;17.10;99.90
31765;DHT22;18338;53.240;8.798;2022-08-19T06:24:55;17.10;99.90
31765;DHT22;18338;53.240;8.798;2022-08-19T06:27:22;17.20;99.90
31765;DHT22;18338;53.240;8.798;2022-08-19T06:29:49;17.20;99.90
31765;DHT22;18338;53.240;8.798;2022-08-19T06:32:18;17.20;99.90
31765;DHT22;18338;53.240;8.798;2022-08-19T06:34:45;17.20;99.90
31765;DHT22;18338;53.240;8.798;2022-08-19T06:37:13;17.30;99.90
31765;DHT22;18338;53.240;8.798;2022-08-19T06:39:42;17.30;99.90
31765;DHT22;18338;53.240;8.798;2022-08-19T06:42:11;17.40;99.90
31765;DHT22;18338;53.240;8.798;2022-08-19T06:44:41;17.50;99.90
31765;DHT22;18338;53.240;8.798;2022-08-19T06:47:18;17.60;99.90
31765;DHT22;18338;53.240;8.798;2022-08-19T06:49:53;17.70;99.90
31765;DHT22;18338;53.240;8.798;2022-08-19T06:52:34;17.80;99.90
31765;DHT22;18338;53.240;8.798;2022-08-19T06:55:04;18.00;99.90
31765;DHT22;18338;53.240;8.798;2022-08-19T06:57:33;18.20;99.90
31765;DHT22;18338;53.240;8.798;2022-08-19T07:00:03;18.50;99.90
31765;DHT22;18338;53.240;8.798;2022-08-19T07:02:30;18.70;99.90
31765;DHT22;18338;53.240;8.798;2022-08-19T07:04:56;19.10;99.90
31765;DHT22;18338;53.240;8.798;2022-08-19T07:07:32;19.50;99.90
31765;DHT22;18338;53.240;8.798;2022-08-19T07:10:00;19.90;99.90
31765;DHT22;18338;53.240;8.798;2022-08-19T07:12:32;20.10;99.90
31765;DHT22;18338;53.240;8.798;2022-08-19T07:15:07;20.40;99.90
31765;DHT22;18338;53.240;8.798;2022-08-19T07:17:38;20.80;99.90
31765;DHT22;18338;53.240;8.798;2022-08-19T07:20:08;20.90;99.90
31765;DHT22;18338;53.240;8.798;2022-08-19T07:22:39;21.20;99.90
31765;DHT22;18338;53.240;8.798;2022-08-19T07:25:08;21.30;99.90
31765;DHT22;18338;53.240;8.798;2022-08-19T07:27:36;21.20;99.90
31765;DHT22;18338;53.240;8.798;2022-08-19T07:30:07;21.10;99.90
31765;DHT22;18338;53.240;8.798;2022-08-19T07:32:38;21.10;99.90
31765;DHT22;18338;53.240;8.798;2022-08-19T07:35:06;21.30;99.90
31765;DHT22;18338;53.240;8.798;2022-08-19T07:37:35;21.40;99.90
31765;DHT22;18338;53.240;8.798;2022-08-19T07:40:06;21.70;99.90
31765;DHT22;18338;53.240;8.798;2022-08-19T07:42:34;22.00;99.90
31765;DHT22;18338;53.240;8.798;2022-08-19T07:45:01;22.30;99.90
31765;DHT22;18338;53.240;8.798;2022-08-19T07:47:27;22.30;99.90
31765;DHT22;18338;53.240;8.798;2022-08-19T07:50:19;22.60;99.90
31765;DHT22;18338;53.240;8.798;2022-08-19T07:52:48;22.70;99.90
31765;DHT22;18338;53.240;8.798;2022-08-19T07:55:19;22.50;99.90
31765;DHT22;18338;53.240;8.798;2022-08-19T07:58:08;22.60;99.90
31765;DHT22;18338;53.240;8.798;2022-08-19T08:00:40;22.70;99.90
31765;DHT22;18338;53.240;8.798;2022-08-19T08:03:09;23.20;99.90
31765;DHT22;18338;53.240;8.798;2022-08-19T08:05:36;23.60;99.90
31765;DHT22;18338;53.240;8.798;2022-08-19T08:08:22;23.60;99.90
31765;DHT22;18338;53.240;8.798;2022-08-19T08:11:16;24.00;99.90
31765;DHT22;18338;53.240;8.798;2022-08-19T08:13:46;24.20;99.90
31765;DHT22;18338;53.240;8.798;2022-08-19T08:16:27;24.50;99.90
31765;DHT22;18338;53.240;8.798;2022-08-19T08:18:57;24.90;99.90
31765;DHT22;18338;53.240;8.798;2022-08-19T08:21:25;24.70;99.90
31765;DHT22;18338;53.240;8.798;2022-08-19T08:23:52;24.70;99.90
31765;DHT22;18338;53.240;8.798;2022-08-19T08:26:23;24.30;99.90
31765;DHT22;18338;53.240;8.798;2022-08-19T08:28:51;24.20;99.90
31765;DHT22;18338;53.240;8.798;2022-08-19T08:31:21;24.10;99.90
31765;DHT22;18338;53.240;8.798;2022-08-19T08:33:48;24.10;99.90
31765;DHT22;18338;53.240;8.798;2022-08-19T08:36:17;24.30;99.90
31765;DHT22;18338;53.240;8.798;2022-08-19T08:38:45;24.50;99.90
31765;DHT22;18338;53.240;8.798;2022-08-19T08:43:59;25.90;99.90
31765;DHT22;18338;53.240;8.798;2022-08-19T08:46:39;27.20;99.90
31765;DHT22;18338;53.240;8.798;2022-08-19T08:52:22;30.00;99.40
31765;DHT22;18338;53.240;8.798;2022-08-19T08:54:59;30.40;98.30
31765;DHT22;18338;53.240;8.798;2022-08-19T08:57:30;31.80;95.00
31765;DHT22;18338;53.240;8.798;2022-08-19T09:00:11;32.80;93.70
31765;DHT22;18338;53.240;8.798;2022-08-19T09:02:42;31.90;92.70
31765;DHT22;18338;53.240;8.798;2022-08-19T09:05:10;33.00;90.70
31765;DHT22;18338;53.240;8.798;2022-08-19T09:08:06;33.70;90.90
31765;DHT22;18338;53.240;8.798;2022-08-19T09:10:56;34.90;86.80
31765;DHT22;18338;53.240;8.798;2022-08-19T09:16:17;32.90;88.20
31765;DHT22;18338;53.240;8.798;2022-08-19T09:18:57;32.00;90.10
31765;DHT22;18338;53.240;8.798;2022-08-19T09:25:22;29.90;91.70
31765;DHT22;18338;53.240;8.798;2022-08-19T09:27:53;29.40;92.80
31765;DHT22;18338;53.240;8.798;2022-08-19T09:30:31;29.10;93.40
31765;DHT22;18338;53.240;8.798;2022-08-19T09:32:59;30.30;94.50
31765;DHT22;18338;53.240;8.798;2022-08-19T09:35:28;32.40;91.50
31765;DHT22;18338;53.240;8.798;2022-08-19T09:38:15;32.70;88.80
31765;DHT22;18338;53.240;8.798;2022-08-19T09:40:42;35.20;85.60
31765;DHT22;18338;53.240;8.798;2022-08-19T09:43:09;36.90;78.30
31765;DHT22;18338;53.240;8.798;2022-08-19T09:45:39;37.30;79.00
31765;DHT22;18338;53.240;8.798;2022-08-19T09:48:06;37.50;75.60
31765;DHT22;18338;53.240;8.798;2022-08-19T09:50:35;38.10;73.60
31765;DHT22;18338;53.240;8.798;2022-08-19T09:53:18;38.10;73.50
31765;DHT22;18338;53.240;8.798;2022-08-19T09:55:45;38.70;72.80
31765;DHT22;18338;53.240;8.798;2022-08-19T09:58:12;39.80;71.70
31765;DHT22;18338;53.240;8.798;2022-08-19T10:00:39;41.00;67.70
31765;DHT22;18338;53.240;8.798;2022-08-19T10:03:06;40.60;67.00
31765;DHT22;18338;53.240;8.798;2022-08-19T10:05:34;40.40;69.30
31765;DHT22;18338;53.240;8.798;2022-08-19T10:08:22;39.40;67.60
31765;DHT22;18338;53.240;8.798;2022-08-19T10:10:52;40.80;66.60
31765;DHT22;18338;53.240;8.798;2022-08-19T10:13:21;40.40;63.60
31765;DHT22;18338;53.240;8.798;2022-08-19T10:15:53;40.00;64.80
31765;DHT22;18338;53.240;8.798;2022-08-19T10:18:22;39.20;65.80
31765;DHT22;18338;53.240;8.798;2022-08-19T10:20:51;40.00;66.70
31765;DHT22;18338;53.240;8.798;2022-08-19T10:23:20;40.70;65.40
31765;DHT22;18338;53.240;8.798;2022-08-19T10:25:48;40.30;62.40
31765;DHT22;18338;53.240;8.798;2022-08-19T10:28:16;40.60;64.80
31765;DHT22;18338;53.240;8.798;2022-08-19T10:30:46;40.90;65.10
31765;DHT22;18338;53.240;8.798;2022-08-19T10:33:13;40.60;63.90
31765;DHT22;18338;53.240;8.798;2022-08-19T10:36:04;40.90;64.10
31765;DHT22;18338;53.240;8.798;2022-08-19T10:38:31;40.80;62.50
31765;DHT22;18338;53.240;8.798;2022-08-19T10:41:10;41.80;60.40
31765;DHT22;18338;53.240;8.798;2022-08-19T10:43:38;41.90;60.10
31765;DHT22;18338;53.240;8.798;2022-08-19T10:46:11;42.30;60.20
31765;DHT22;18338;53.240;8.798;2022-08-19T10:48:43;42.10;62.50
31765;DHT22;18338;53.240;8.798;2022-08-19T10:51:11;42.60;59.00
31765;DHT22;18338;53.240;8.798;2022-08-19T10:53:57;42.50;60.40
31765;DHT22;18338;53.240;8.798;2022-08-19T10:56:26;43.50;58.20
31765;DHT22;18338;53.240;8.798;2022-08-19T10:59:11;43.60;58.30
31765;DHT22;18338;53.240;8.798;2022-08-19T11:01:42;44.00;59.10
31765;DHT22;18338;53.240;8.798;2022-08-19T11:04:09;44.00;58.10
31765;DHT22;18338;53.240;8.798;2022-08-19T11:06:37;44.20;59.30
31765;DHT22;18338;53.240;8.798;2022-08-19T11:09:05;43.90;59.50
31765;DHT22;18338;53.240;8.798;2022-08-19T11:11:32;43.70;58.90
31765;DHT22;18338;53.240;8.798;2022-08-19T11:14:04;44.70;55.50
31765;DHT22;18338;53.240;8.798;2022-08-19T11:16:31;45.30;55.00
31765;DHT22;18338;53.240;8.798;2022-08-19T11:18:59;45.90;55.50
31765;DHT22;18338;53.240;8.798;2022-08-19T11:21:30;46.90;53.10
31765;DHT22;18338;53.240;8.798;2022-08-19T11:24:04;46.80;52.80
31765;DHT22;18338;53.240;8.798;2022-08-19T11:26:33;44.40;53.50
31765;DHT22;18338;53.240;8.798;2022-08-19T11:29:00;43.60;55.40
31765;DHT22;18338;53.240;8.798;2022-08-19T11:31:30;44.00;51.80
31765;DHT22;18338;53.240;8.798;2022-08-19T11:34:20;43.40;53.30
31765;DHT22;18338;53.240;8.798;2022-08-19T11:38:08;43.80;53.10
31765;DHT22;18338;53.240;8.798;2022-08-19T11:41:06;43.60;54.60
31765;DHT22;18338;53.240;8.798;2022-08-19T11:43:36;44.50;54.10
31765;DHT22;18338;53.240;8.798;2022-08-19T11:46:06;45.30;55.00
31765;DHT22;18338;53.240;8.798;2022-08-19T11:48:34;45.20;52.70
31765;DHT22;18338;53.240;8.798;2022-08-19T11:51:10;45.20;51.90
31765;DHT22;18338;53.240;8.798;2022-08-19T11:53:38;44.80;52.70
31765;DHT22;18338;53.240;8.798;2022-08-19T11:56:07;43.70;53.30
31765;DHT22;18338;53.240;8.798;2022-08-19T11:58:38;41.90;54.90
31765;DHT22;18338;53.240;8.798;2022-08-19T12:01:07;40.10;56.40
31765;DHT22;18338;53.240;8.798;2022-08-19T12:03:34;38.80;57.30
31765;DHT22;18338;53.240;8.798;2022-08-19T12:06:18;38.10;58.60
31765;DHT22;18338;53.240;8.798;2022-08-19T12:08:45;39.20;58.30
31765;DHT22;18338;53.240;8.798;2022-08-19T12:11:14;39.60;56.30
31765;DHT22;18338;53.240;8.798;2022-08-19T12:13:42;40.30;57.10
31765;DHT22;18338;53.240;8.798;2022-08-19T12:16:18;39.30;56.00
31765;DHT22;18338;53.240;8.798;2022-08-19T12:18:46;38.80;57.30
31765;DHT22;18338;53.240;8.798;2022-08-19T12:21:15;38.30;58.90
31765;DHT22;18338;53.240;8.798;2022-08-19T12:24:12;39.30;57.90
31765;DHT22;18338;53.240;8.798;2022-08-19T12:26:39;39.60;55.40
31765;DHT22;18338;53.240;8.798;2022-08-19T12:29:20;38.00;57.30
31765;DHT22;18338;53.240;8.798;2022-08-19T12:31:50;38.30;58.10
31765;DHT22;18338;53.240;8.798;2022-08-19T12:34:17;38.30;57.30
31765;DHT22;18338;53.240;8.798;2022-08-19T12:36:44;37.30;57.70
31765;DHT22;18338;53.240;8.798;2022-08-19T12:39:11;36.90;58.90
31765;DHT22;18338;53.240;8.798;2022-08-19T12:41:39;37.20;58.80
31765;DHT22;18338;53.240;8.798;2022-08-19T12:44:17;38.30;56.40
31765;DHT22;18338;53.240;8.798;2022-08-19T12:46:46;38.80;55.10
31765;DHT22;18338;53.240;8.798;2022-08-19T12:49:19;38.10;56.90
31765;DHT22;18338;53.240;8.798;2022-08-19T12:52:08;38.50;54.60
31765;DHT22;18338;53.240;8.798;2022-08-19T12:54:36;37.70;55.90
31765;DHT22;18338;53.240;8.798;2022-08-19T12:57:08;38.50;55.20
31765;DHT22;18338;53.240;8.798;2022-08-19T12:59:35;39.50;51.60
31765;DHT22;18338;53.240;8.798;2022-08-19T13:02:04;40.20;48.70
31765;DHT22;18338;53.240;8.798;2022-08-19T13:04:35;39.40;49.40
31765;DHT22;18338;53.240;8.798;2022-08-19T13:07:03;39.20;50.90
31765;DHT22;18338;53.240;8.798;2022-08-19T13:09:30;40.90;50.40
31765;DHT22;18338;53.240;8.798;2022-08-19T13:11:57;39.90;50.40
31765;DHT22;18338;53.240;8.798;2022-08-19T13:14:24;38.60;50.60
31765;DHT22;18338;53.240;8.798;2022-08-19T13:20:04;40.10;50.00
31765;DHT22;18338;53.240;8.798;2022-08-19T13:22:34;40.60;49.60
31765;DHT22;18338;53.240;8.798;2022-08-19T13:25:04;41.20;50.10
31765;DHT22;18338;53.240;8.798;2022-08-19T13:27:32;42.20;49.90
31765;DHT22;18338;53.240;8.798;2022-08-19T13:29:59;41.20;48.60
31765;DHT22;18338;53.240;8.798;2022-08-19T13:32:45;41.30;50.10
31765;DHT22;18338;53.240;8.798;2022-08-19T13:35:30;42.20;49.00
31765;DHT22;18338;53.240;8.798;2022-08-19T13:37:57;41.50;49.00
31765;DHT22;18338;53.240;8.798;2022-08-19T13:40:24;40.60;49.20
31765;DHT22;18338;53.240;8.798;2022-08-19T13:42:54;39.10;51.40
31765;DHT22;18338;53.240;8.798;2022-08-19T13:45:23;38.80;52.40
31765;DHT22;18338;53.240;8.798;2022-08-19T13:47:52;38.50;52.70
31765;DHT22;18338;53.240;8.798;2022-08-19T13:50:27;38.90;52.80
31765;DHT22;18338;53.240;8.798;2022-08-19T13:52:55;38.60;52.70
31765;DHT22;18338;53.240;8.798;2022-08-19T13:55:23;38.80;52.60
31765;DHT22;18338;53.240;8.798;2022-08-19T13:57:55;38.40;52.60
31765;DHT22;18338;53.240;8.798;2022-08-19T14:00:33;38.00;52.50
31765;DHT22;18338;53.240;8.798;2022-08-19T14:03:00;37.10;53.10
31765;DHT22;18338;53.240;8.798;2022-08-19T14:05:30;37.70;54.00
31765;DHT22;18338;53.240;8.798;2022-08-19T14:07:58;37.30;53.50
31765;DHT22;18338;53.240;8.798;2022-08-19T14:10:26;37.90;55.10
31765;DHT22;18338;53.240;8.798;2022-08-19T14:12:55;38.30;53.00
31765;DHT22;18338;53.240;8.798;2022-08-19T14:15:22;38.10;54.50
31765;DHT22;18338;53.240;8.798;2022-08-19T14:17:50;38.90;54.10
31765;DHT22;18338;53.240;8.798;2022-08-19T14:20:17;39.20;53.20
31765;DHT22;18338;53.240;8.798;2022-08-19T14:22:45;39.20;54.50
31765;DHT22;18338;53.240;8.798;2022-08-19T14:25:15;39.00;54.00
31765;DHT22;18338;53.240;8.798;2022-08-19T14:27:42;39.40;54.70
31765;DHT22;18338;53.240;8.798;2022-08-19T14:30:12;39.30;54.70
31765;DHT22;18338;53.240;8.798;2022-08-19T14:32:40;39.30;54.00
31765;DHT22;18338;53.240;8.798;2022-08-19T14:35:11;39.10;55.60
31765;DHT22;18338;53.240;8.798;2022-08-19T14:37:39;39.40;54.40
31765;DHT22;18338;53.240;8.798;2022-08-19T14:40:23;39.60;54.10
31765;DHT22;18338;53.240;8.798;2022-08-19T14:42:53;39.50;54.00
31765;DHT22;18338;53.240;8.798;2022-08-19T14:45:22;39.00;54.30
31765;DHT22;18338;53.240;8.798;2022-08-19T14:47:48;39.30;54.20
31765;DHT22;18338;53.240;8.798;2022-08-19T14:50:16;39.70;52.80
31765;DHT22;18338;53.240;8.798;2022-08-19T14:52:44;39.00;54.10
31765;DHT22;18338;53.240;8.798;2022-08-19T14:55:11;39.20;54.10
31765;DHT22;18338;53.240;8.798;2022-08-19T14:57:40;39.30;55.80
31765;DHT22;18338;53.240;8.798;2022-08-19T15:00:08;38.50;56.10
31765;DHT22;18338;53.240;8.798;2022-08-19T15:02:40;39.10;55.60
31765;DHT22;18338;53.240;8.798;2022-08-19T15:05:08;39.30;54.50
31765;DHT22;18338;53.240;8.798;2022-08-19T15:07:36;38.80;54.30
31765;DHT22;18338;53.240;8.798;2022-08-19T15:10:04;36.50;57.20
31765;DHT22;18338;53.240;8.798;2022-08-19T15:12:34;36.10;58.30
31765;DHT22;18338;53.240;8.798;2022-08-19T15:15:02;36.70;58.20
31765;DHT22;18338;53.240;8.798;2022-08-19T15:17:29;37.20;57.40
31765;DHT22;18338;53.240;8.798;2022-08-19T15:20:15;37.20;56.70
31765;DHT22;18338;53.240;8.798;2022-08-19T15:22:42;36.50;56.40
31765;DHT22;18338;53.240;8.798;2022-08-19T15:25:10;35.60;58.00
31765;DHT22;18338;53.240;8.798;2022-08-19T15:27:40;36.30;59.00
31765;DHT22;18338;53.240;8.798;2022-08-19T15:30:08;37.00;56.90
31765;DHT22;18338;53.240;8.798;2022-08-19T15:32:36;36.80;57.80
31765;DHT22;18338;53.240;8.798;2022-08-19T15:35:04;37.40;56.10
31765;DHT22;18338;53.240;8.798;2022-08-19T15:37:32;37.50;57.50
31765;DHT22;18338;53.240;8.798;2022-08-19T15:40:05;37.90;57.00
31765;DHT22;18338;53.240;8.798;2022-08-19T15:42:36;38.00;56.40
31765;DHT22;18338;53.240;8.798;2022-08-19T15:45:05;37.90;56.80
31765;DHT22;18338;53.240;8.798;2022-08-19T15:47:32;37.90;56.50
31765;DHT22;18338;53.240;8.798;2022-08-19T15:50:09;37.70;56.30
31765;DHT22;18338;53.240;8.798;2022-08-19T15:52:50;37.60;56.20
31765;DHT22;18338;53.240;8.798;2022-08-19T15:55:20;37.10;58.20
31765;DHT22;18338;53.240;8.798;2022-08-19T15:58:05;37.40;56.70
31765;DHT22;18338;53.240;8.798;2022-08-19T16:01:00;37.60;56.50
31765;DHT22;18338;53.240;8.798;2022-08-19T16:03:48;37.40;56.40
31765;DHT22;18338;53.240;8.798;2022-08-19T16:09:09;36.80;56.90
31765;DHT22;18338;53.240;8.798;2022-08-19T16:11:36;36.60;57.30
31765;DHT22;18338;53.240;8.798;2022-08-19T16:14:05;36.40;58.60
31765;DHT22;18338;53.240;8.798;2022-08-19T16:16:35;36.30;56.80
31765;DHT22;18338;53.240;8.798;2022-08-19T16:19:05;35.60;58.00
31765;DHT22;18338;53.240;8.798;2022-08-19T16:21:37;34.90;59.10
31765;DHT22;18338;53.240;8.798;2022-08-19T16:24:08;34.10;58.70
31765;DHT22;18338;53.240;8.798;2022-08-19T16:26:36;33.00;60.60
31765;DHT22;18338;53.240;8.798;2022-08-19T16:29:03;32.30;60.50